Time;durP1;ratioP1;P1;durP2;ratioP2;P2;SDS_P1;SDS_P2;PMS_P1;PMS_P2;Temp;Humidity;BMP_temperature;BMP_pressure;BME280_temperature;BME280_humidity;BME280_pressure;Samples;Min_cycle;Max_cycle;Signal;HPM_P1;HPM_P2
2022/08/25 00:02:16;;;;;;;9.40;5.78;;;26.40;99.90;;;;;;1840437;77;21152;-83
2022/08/25 00:04:47;;;;;;;10.40;5.60;;;26.40;99.90;;;;;;1833431;77;21674;-82
2022/08/25 00:07:19;;;;;;;7.67;5.65;;;26.50;99.90;;;;;;1836096;77;21128;-83
2022/08/25 00:09:50;;;;;;;7.62;5.95;;;26.50;99.90;;;;;;1846809;77;21148;-83
2022/08/25 00:12:21;;;;;;;8.73;5.25;;;26.50;99.90;;;;;;1832996;77;21118;-83
2022/08/25 00:14:52;;;;;;;8.73;5.72;;;26.60;99.90;;;;;;1842277;77;21109;-83
2022/08/25 00:17:23;;;;;;;7.25;5.65;;;26.60;99.90;;;;;;1839878;77;21160;-82
2022/08/25 00:19:54;;;;;;;6.85;5.55;;;26.60;99.90;;;;;;1838734;77;21155;-83
2022/08/25 00:22:25;;;;;;;7.85;5.85;;;26.60;99.90;;;;;;1846485;77;21160;-83
2022/08/25 00:24:56;;;;;;;7.95;5.75;;;26.70;99.90;;;;;;1840777;77;21082;-83
2022/08/25 00:27:27;;;;;;;8.10;5.72;;;26.70;99.90;;;;;;1847267;77;21172;-83
2022/08/25 00:29:59;;;;;;;9.38;6.53;;;26.80;99.90;;;;;;1828911;77;21474;-83
2022/08/25 00:32:30;;;;;;;8.60;6.40;;;26.80;99.90;;;;;;1847360;77;21144;-72
2022/08/25 00:35:01;;;;;;;10.43;6.50;;;26.90;99.90;;;;;;1840687;77;21112;-72
2022/08/25 00:37:32;;;;;;;8.18;6.10;;;26.90;99.90;;;;;;1832595;77;21191;-71
2022/08/25 00:40:04;;;;;;;8.80;6.85;;;27.00;99.90;;;;;;1838275;77;21198;-71
2022/08/25 00:42:37;;;;;;;9.13;6.17;;;27.00;99.90;;;;;;1827620;77;21160;-72
2022/08/25 00:45:09;;;;;;;9.58;7.65;;;27.00;99.90;;;;;;1828640;77;21139;-72
2022/08/25 00:47:40;;;;;;;10.98;7.75;;;27.00;99.90;;;;;;1848166;77;21218;-72
2022/08/25 00:50:12;;;;;;;10.32;7.55;;;27.00;99.90;;;;;;1835022;77;21846;-72
2022/08/25 00:52:45;;;;;;;8.88;7.55;;;27.00;99.90;;;;;;1837482;77;21136;-71
2022/08/25 00:55:17;;;;;;;16.73;9.90;;;27.00;99.90;;;;;;1838532;77;21081;-70
2022/08/25 00:57:50;;;;;;;14.30;9.13;;;27.00;99.90;;;;;;1837690;76;21179;-73
2022/08/25 01:00:24;;;;;;;10.43;8.53;;;27.00;99.90;;;;;;1839164;76;21168;-72
2022/08/25 01:02:56;;;;;;;13.25;8.45;;;27.00;99.90;;;;;;1838631;77;21136;-72
2022/08/25 01:05:28;;;;;;;11.63;8.70;;;27.00;99.90;;;;;;1836451;77;21985;-71
2022/08/25 01:08:05;;;;;;;10.20;7.80;;;27.10;99.90;;;;;;1836693;77;21779;-73
2022/08/25 01:10:36;;;;;;;10.55;7.33;;;27.10;99.90;;;;;;1806946;78;21137;-72
2022/08/25 01:13:11;;;;;;;15.93;6.50;;;27.10;99.90;;;;;;1823573;77;21678;-72
2022/08/25 01:15:44;;;;;;;15.43;8.50;;;27.10;99.90;;;;;;1823785;78;21156;-72
2022/08/25 01:18:16;;;;;;;17.62;8.70;;;27.10;99.90;;;;;;1830352;76;21494;-73
2022/08/25 01:20:49;;;;;;;12.03;6.35;;;27.00;99.90;;;;;;1823935;77;21550;-73
2022/08/25 01:23:21;;;;;;;9.25;6.05;;;26.90;99.90;;;;;;1811243;77;21658;-72
2022/08/25 01:25:53;;;;;;;9.85;6.35;;;26.80;99.90;;;;;;1817019;77;21120;-72
2022/08/25 01:28:24;;;;;;;10.08;5.90;;;26.70;99.90;;;;;;1810896;77;21191;-73
2022/08/25 01:30:55;;;;;;;9.05;6.10;;;26.70;99.90;;;;;;1815824;77;21242;-73
2022/08/25 01:33:27;;;;;;;6.33;5.40;;;26.70;99.90;;;;;;1810781;78;21593;-73
2022/08/25 01:35:58;;;;;;;7.12;5.40;;;26.70;99.90;;;;;;1817360;77;21159;-73
2022/08/25 01:38:29;;;;;;;7.90;5.37;;;26.70;99.90;;;;;;1810492;78;21237;-72
2022/08/25 01:41:00;;;;;;;8.05;5.50;;;26.70;99.90;;;;;;1802841;78;21972;-72
2022/08/25 01:43:35;;;;;;;8.90;6.12;;;26.70;99.90;;;;;;1814320;78;21621;-72
2022/08/25 01:46:06;;;;;;;9.90;6.05;;;26.70;99.90;;;;;;1815649;78;21179;-72
2022/08/25 01:48:37;;;;;;;8.63;5.97;;;26.70;99.90;;;;;;1819633;77;21765;-72
2022/08/25 01:51:09;;;;;;;8.50;6.00;;;26.70;99.90;;;;;;1813605;78;21257;-73
2022/08/25 01:53:42;;;;;;;8.75;6.20;;;26.80;99.90;;;;;;1786538;79;21144;-73
2022/08/25 01:56:15;;;;;;;8.28;6.40;;;26.90;99.90;;;;;;1831243;77;21598;-73
2022/08/25 01:58:50;;;;;;;8.60;6.80;;;26.90;99.90;;;;;;1833088;78;21277;-72
2022/08/25 02:01:23;;;;;;;8.13;6.45;;;27.00;99.90;;;;;;1818788;78;21114;-72
2022/08/25 02:03:56;;;;;;;10.35;6.45;;;27.10;99.90;;;;;;1790494;79;21100;-73
2022/08/25 02:06:31;;;;;;;12.95;7.10;;;27.10;99.90;;;;;;1821062;78;21149;-72
2022/08/25 02:09:04;;;;;;;11.50;6.33;;;27.20;99.90;;;;;;1796937;78;21121;-71
2022/08/25 02:11:37;;;;;;;11.83;6.92;;;27.20;99.90;;;;;;1827584;76;21243;-73
2022/08/25 02:14:10;;;;;;;9.75;6.67;;;27.20;99.90;;;;;;1830262;78;21145;-73
2022/08/25 02:16:43;;;;;;;11.85;7.40;;;27.20;99.90;;;;;;1836846;78;21122;-73
2022/08/25 02:19:15;;;;;;;9.35;7.33;;;27.20;99.90;;;;;;1787538;79;21170;-74
2022/08/25 02:21:46;;;;;;;10.28;7.08;;;27.30;99.90;;;;;;1832216;76;21106;-73
2022/08/25 02:24:19;;;;;;;11.53;7.78;;;27.30;99.90;;;;;;1834464;76;21109;-73
2022/08/25 02:26:50;;;;;;;10.13;7.62;;;27.40;99.90;;;;;;1844745;77;21136;-73
2022/08/25 02:29:21;;;;;;;12.53;6.85;;;27.50;99.90;;;;;;1847503;76;21125;-72
2022/08/25 02:31:52;;;;;;;8.38;7.00;;;27.50;99.90;;;;;;1881079;75;21194;-72
2022/08/25 02:34:23;;;;;;;10.78;7.45;;;27.60;99.90;;;;;;1882277;74;21661;-72
2022/08/25 02:36:54;;;;;;;11.30;7.08;;;27.70;99.90;;;;;;1886397;74;21219;-72
2022/08/25 02:39:26;;;;;;;12.55;7.95;;;27.60;99.90;;;;;;1852685;76;21088;-72
2022/08/25 02:41:58;;;;;;;12.00;7.87;;;27.60;99.90;;;;;;1853191;76;21097;-72
2022/08/25 02:44:30;;;;;;;10.30;7.10;;;27.60;99.90;;;;;;1851195;76;21173;-72
2022/08/25 02:47:01;;;;;;;11.10;6.45;;;27.60;99.90;;;;;;1843565;76;21115;-71
2022/08/25 02:49:33;;;;;;;10.75;7.28;;;27.60;99.90;;;;;;1838227;77;21137;-71
2022/08/25 02:52:04;;;;;;;10.30;7.75;;;27.70;99.90;;;;;;1809893;77;21188;-71
2022/08/25 02:54:35;;;;;;;9.43;7.70;;;27.70;99.90;;;;;;1862636;76;21126;-71
2022/08/25 02:57:06;;;;;;;11.40;7.67;;;27.70;99.90;;;;;;1861426;76;21544;-71
2022/08/25 02:59:38;;;;;;;10.15;7.80;;;27.70;99.90;;;;;;1860931;76;21689;-71
2022/08/25 03:02:08;;;;;;;9.98;7.22;;;27.80;99.90;;;;;;1863980;76;21575;-71
2022/08/25 03:04:39;;;;;;;9.10;7.58;;;27.80;99.90;;;;;;1868365;76;21178;-71
2022/08/25 03:07:11;;;;;;;14.38;8.30;;;27.90;99.90;;;;;;1865640;76;21229;-71
2022/08/25 03:09:43;;;;;;;10.68;7.58;;;27.90;99.90;;;;;;1859964;76;21182;-71
2022/08/25 03:12:15;;;;;;;10.03;7.67;;;27.90;99.90;;;;;;1865287;76;21728;-71
2022/08/25 03:14:49;;;;;;;11.43;6.42;;;27.90;99.90;;;;;;1861526;75;21150;-70
2022/08/25 03:17:20;;;;;;;9.50;4.40;;;27.90;99.90;;;;;;1867257;76;21649;-72
2022/08/25 03:19:51;;;;;;;5.80;4.37;;;27.80;99.90;;;;;;1861249;76;21193;-72
2022/08/25 03:22:22;;;;;;;6.45;4.20;;;27.80;99.90;;;;;;1864964;76;21104;-73
2022/08/25 03:26:52;;;;;;;6.28;3.62;;;27.70;99.90;;;;;;1806669;78;21540;-72
2022/08/25 03:27:29;;;;;;;40.08;6.97;;;27.70;99.90;;;;;;1798234;78;21315;-72
2022/08/25 03:30:02;;;;;;;10.65;5.22;;;27.70;99.90;;;;;;1836624;77;21766;-72
2022/08/25 03:32:32;;;;;;;5.70;3.95;;;27.70;99.90;;;;;;1840649;77;21140;-72
2022/08/25 03:35:04;;;;;;;5.78;4.30;;;27.70;99.90;;;;;;1788373;80;21221;-72
2022/08/25 03:37:36;;;;;;;8.05;4.55;;;27.70;99.90;;;;;;1809023;78;21206;-72
2022/08/25 03:40:10;;;;;;;7.53;4.40;;;27.70;99.90;;;;;;1802446;79;21216;-71
2022/08/25 03:42:44;;;;;;;7.72;5.17;;;27.70;99.90;;;;;;1802243;78;21148;-72
2022/08/25 03:45:17;;;;;;;8.08;5.58;;;27.80;99.90;;;;;;1811413;78;21156;-71
2022/08/25 03:47:50;;;;;;;8.50;6.37;;;27.80;99.90;;;;;;1815014;78;21705;-73
2022/08/25 03:50:22;;;;;;;8.90;7.42;;;27.80;99.90;;;;;;1807962;78;21155;-72
2022/08/25 03:52:56;;;;;;;10.88;6.83;;;27.90;99.90;;;;;;1810859;78;21674;-72
2022/08/25 03:55:27;;;;;;;9.68;6.60;;;27.90;99.90;;;;;;1809857;78;21210;-73
2022/08/25 03:58:00;;;;;;;9.70;7.45;;;28.00;99.90;;;;;;1827523;77;21086;-72
2022/08/25 04:00:31;;;;;;;9.03;7.33;;;28.00;99.90;;;;;;1804893;78;21277;-73
2022/08/25 04:03:03;;;;;;;9.28;7.00;;;28.10;99.90;;;;;;1807151;78;21312;-73
2022/08/25 04:05:37;;;;;;;8.75;6.65;;;28.20;99.90;;;;;;1811479;78;21615;-72
2022/08/25 04:08:08;;;;;;;10.08;8.10;;;28.20;99.90;;;;;;1826596;78;21619;-73
2022/08/25 04:10:40;;;;;;;13.18;8.65;;;28.30;99.90;;;;;;1820157;78;21101;-71
2022/08/25 04:13:11;;;;;;;13.48;9.30;;;28.30;99.90;;;;;;1800021;78;21722;-72
2022/08/25 04:15:43;;;;;;;12.75;9.20;;;28.30;99.90;;;;;;1798172;78;21237;-71
2022/08/25 04:18:14;;;;;;;10.28;8.15;;;28.40;99.90;;;;;;1804895;78;21245;-72
2022/08/25 04:20:46;;;;;;;11.43;7.97;;;28.50;99.90;;;;;;1815610;78;21073;-73
2022/08/25 04:23:17;;;;;;;10.18;7.60;;;28.60;99.90;;;;;;1818106;78;21750;-73
2022/08/25 04:25:47;;;;;;;13.50;7.85;;;28.60;99.90;;;;;;1828560;78;21081;-73
2022/08/25 04:28:19;;;;;;;9.43;7.67;;;28.70;99.90;;;;;;1813657;78;21608;-73
2022/08/25 04:30:50;;;;;;;12.50;7.78;;;28.70;99.90;;;;;;1819223;78;21679;-73
2022/08/25 04:33:21;;;;;;;12.07;8.08;;;28.80;99.90;;;;;;1820181;78;21097;-71
2022/08/25 04:35:52;;;;;;;10.68;7.85;;;28.80;99.90;;;;;;1799657;78;21159;-73
2022/08/25 04:38:23;;;;;;;9.28;7.83;;;28.90;99.90;;;;;;1811361;78;21092;-71
2022/08/25 04:40:57;;;;;;;11.28;7.75;;;29.00;99.90;;;;;;1816243;78;21205;-72
2022/08/25 04:43:28;;;;;;;10.75;7.45;;;29.00;99.90;;;;;;1815216;77;21164;-72
2022/08/25 04:46:00;;;;;;;11.35;7.80;;;29.00;99.90;;;;;;1812511;78;21240;-72
2022/08/25 04:48:31;;;;;;;9.63;7.17;;;29.10;99.90;;;;;;1822733;77;21160;-73
2022/08/25 04:51:05;;;;;;;8.25;7.17;;;29.10;99.90;;;;;;1822017;77;21701;-72
2022/08/25 04:53:37;;;;;;;11.25;6.80;;;29.20;99.90;;;;;;1825210;77;21548;-72
2022/08/25 04:56:13;;;;;;;10.53;6.80;;;29.30;99.90;;;;;;1820664;78;21171;-72
2022/08/25 04:58:47;;;;;;;7.85;6.30;;;29.30;99.90;;;;;;1800376;78;21203;-72
2022/08/25 05:01:19;;;;;;;10.53;6.55;;;29.40;99.90;;;;;;1810618;78;21164;-72
2022/08/25 05:03:52;;;;;;;10.32;7.33;;;29.60;99.90;;;;;;1813671;78;21140;-73
2022/08/25 05:06:25;;;;;;;10.98;7.40;;;29.70;99.90;;;;;;1826946;78;21135;-72
2022/08/25 05:08:57;;;;;;;11.12;7.47;;;29.90;99.90;;;;;;1816249;76;21284;-75
2022/08/25 05:11:28;;;;;;;8.13;6.65;;;30.10;99.60;;;;;;1805741;77;21265;-73
2022/08/25 05:14:02;;;;;;;9.25;6.70;;;30.20;99.30;;;;;;1824963;77;21136;-74
2022/08/25 05:16:33;;;;;;;9.40;6.33;;;30.40;98.80;;;;;;1819049;78;21497;-72
2022/08/25 05:19:05;;;;;;;7.97;5.78;;;30.60;98.00;;;;;;1815782;78;21269;-71
2022/08/25 05:21:36;;;;;;;6.97;5.50;;;30.60;97.70;;;;;;1815132;78;21540;-72
2022/08/25 05:24:08;;;;;;;9.10;5.83;;;30.60;98.00;;;;;;1821092;78;21356;-72
2022/08/25 05:26:39;;;;;;;7.87;5.70;;;30.70;97.50;;;;;;1829118;78;21609;-72
2022/08/25 05:29:10;;;;;;;8.40;6.17;;;30.80;97.70;;;;;;1820312;77;21143;-71
2022/08/25 05:31:42;;;;;;;9.50;6.90;;;30.80;97.60;;;;;;1822348;77;21140;-70
2022/08/25 05:34:16;;;;;;;7.80;6.20;;;30.80;97.60;;;;;;1817240;78;21162;-71
2022/08/25 05:36:50;;;;;;;8.38;6.78;;;30.80;97.40;;;;;;1831218;76;21282;-71
2022/08/25 05:39:20;;;;;;;7.50;5.53;;;30.90;97.70;;;;;;1830360;77;21162;-71
2022/08/25 05:41:52;;;;;;;7.55;5.42;;;30.90;97.50;;;;;;1828927;77;21202;-70
2022/08/25 05:44:23;;;;;;;9.48;5.47;;;30.90;97.10;;;;;;1805089;78;21117;-72
2022/08/25 05:46:54;;;;;;;7.40;5.55;;;30.90;96.90;;;;;;1860124;76;21143;-70
2022/08/25 05:49:26;;;;;;;10.48;5.60;;;30.80;96.30;;;;;;1861830;76;21772;-72
2022/08/25 05:51:57;;;;;;;9.40;6.03;;;30.70;96.60;;;;;;1860302;76;21100;-71
2022/08/25 05:54:28;;;;;;;8.23;6.25;;;30.60;97.10;;;;;;1861324;76;21138;-72
2022/08/25 05:57:00;;;;;;;9.40;5.80;;;30.50;97.20;;;;;;1863297;75;21143;-71
2022/08/25 05:59:31;;;;;;;8.18;5.85;;;30.30;97.20;;;;;;1812928;77;21694;-72
2022/08/25 06:04:34;;;;;;;7.90;5.67;;;30.20;97.50;;;;;;1828778;77;21127;-71
2022/08/25 06:07:06;;;;;;;8.13;5.37;;;30.20;97.60;;;;;;1823220;76;21065;-71
2022/08/25 06:09:39;;;;;;;7.00;4.37;;;30.20;97.20;;;;;;1824625;78;21206;-72
2022/08/25 06:12:10;;;;;;;6.62;5.70;;;30.20;96.80;;;;;;1818814;77;21157;-71
2022/08/25 06:14:42;;;;;;;10.25;5.37;;;30.30;96.70;;;;;;1828897;77;21599;-71
2022/08/25 06:17:13;;;;;;;12.82;7.40;;;30.40;97.10;;;;;;1820309;77;21093;-72
2022/08/25 06:19:44;;;;;;;16.20;9.45;;;30.60;96.70;;;;;;1821194;78;21088;-71
2022/08/25 06:22:15;;;;;;;9.45;7.28;;;30.80;95.30;;;;;;1826031;78;21182;-72
2022/08/25 06:24:46;;;;;;;9.80;7.65;;;30.80;96.20;;;;;;1822780;78;21268;-72
2022/08/25 06:27:17;;;;;;;7.87;5.80;;;30.80;96.30;;;;;;1820008;77;21120;-72
2022/08/25 06:29:48;;;;;;;11.90;7.47;;;30.80;96.20;;;;;;1809960;78;21105;-71
2022/08/25 06:32:20;;;;;;;9.30;6.90;;;30.90;96.50;;;;;;1810342;77;21143;-71
2022/08/25 06:34:51;;;;;;;11.97;9.45;;;30.90;96.10;;;;;;1815954;78;21152;-72
2022/08/25 06:37:22;;;;;;;6.00;5.30;;;30.80;96.20;;;;;;1789695;79;21809;-71
2022/08/25 06:39:54;;;;;;;10.78;6.92;;;30.80;96.10;;;;;;1807167;78;21623;-71
2022/08/25 06:42:47;;;;;;;8.03;6.10;;;30.80;96.00;;;;;;1832394;77;21663;-72
2022/08/25 06:45:18;;;;;;;9.20;6.15;;;30.90;95.60;;;;;;1815811;78;21234;-72
2022/08/25 06:47:51;;;;;;;7.50;4.50;;;31.00;95.00;;;;;;1815742;79;21152;-73
2022/08/25 06:50:21;;;;;;;10.30;5.85;;;31.20;95.30;;;;;;1807960;77;21161;-71
2022/08/25 06:52:53;;;;;;;6.87;4.58;;;31.30;94.60;;;;;;1806069;79;21188;-71
2022/08/25 06:55:24;;;;;;;9.58;6.10;;;31.40;93.90;;;;;;1812068;79;21181;-71
2022/08/25 06:57:55;;;;;;;6.45;4.05;;;31.40;93.80;;;;;;1816073;79;21145;-72
2022/08/25 07:00:26;;;;;;;7.42;3.83;;;31.30;94.10;;;;;;1811747;77;21251;-71
2022/08/25 07:03:00;;;;;;;6.60;3.83;;;31.30;94.00;;;;;;1811979;78;21090;-71
2022/08/25 07:05:31;;;;;;;6.62;3.22;;;31.20;93.70;;;;;;1808827;77;21215;-72
2022/08/25 07:08:03;;;;;;;6.12;3.72;;;31.10;93.80;;;;;;1809530;78;21291;-72
2022/08/25 07:10:34;;;;;;;7.22;3.25;;;31.20;94.00;;;;;;1812817;79;21215;-72
2022/08/25 07:13:05;;;;;;;4.20;3.08;;;31.10;94.10;;;;;;1812216;79;21153;-72
2022/08/25 07:15:38;;;;;;;5.60;3.40;;;31.10;94.00;;;;;;1812050;79;21203;-72
2022/08/25 07:18:10;;;;;;;4.65;2.58;;;31.10;94.10;;;;;;1803092;78;21160;-71
2022/08/25 07:20:41;;;;;;;4.62;3.10;;;31.10;93.20;;;;;;1808075;79;21200;-71
2022/08/25 07:23:12;;;;;;;3.83;2.98;;;31.10;93.80;;;;;;1815601;79;21070;-70
2022/08/25 07:25:43;;;;;;;4.20;3.10;;;31.00;93.90;;;;;;1807116;79;21208;-70
2022/08/25 07:28:16;;;;;;;5.03;3.15;;;30.90;94.00;;;;;;1797112;78;21098;-73
2022/08/25 07:30:47;;;;;;;4.53;2.30;;;30.90;94.10;;;;;;1811650;77;21625;-71
2022/08/25 07:33:23;;;;;;;2.80;2.30;;;30.90;93.70;;;;;;1807795;77;21643;-70
2022/08/25 07:35:55;;;;;;;3.25;2.50;;;30.90;93.40;;;;;;1813850;77;21180;-71
2022/08/25 07:38:27;;;;;;;5.37;2.45;;;30.80;94.10;;;;;;1816371;79;21530;-70
2022/08/25 07:41:01;;;;;;;7.10;5.15;;;30.80;93.90;;;;;;1814760;79;21344;-71
2022/08/25 07:43:32;;;;;;;8.98;5.65;;;30.80;94.10;;;;;;1817204;77;21208;-71
2022/08/25 07:46:06;;;;;;;5.22;3.10;;;30.80;94.60;;;;;;1852737;76;21703;-71
2022/08/25 07:48:38;;;;;;;4.20;3.70;;;30.80;94.30;;;;;;1800411;78;21131;-71
2022/08/25 07:51:11;;;;;;;6.00;3.45;;;30.80;94.40;;;;;;1815424;77;21244;-72
2022/08/25 07:53:42;;;;;;;5.53;3.25;;;30.70;94.50;;;;;;1817100;76;21110;-71
2022/08/25 07:56:15;;;;;;;5.22;2.80;;;30.70;94.50;;;;;;1811408;78;21632;-72
2022/08/25 07:58:47;;;;;;;4.53;3.05;;;30.60;94.80;;;;;;1814279;79;21191;-72
2022/08/25 08:01:28;;;;;;;5.97;3.50;;;30.60;94.80;;;;;;1815384;78;21180;-72
2022/08/25 08:03:59;;;;;;;6.58;3.27;;;30.50;95.00;;;;;;1814195;78;21242;-71
2022/08/25 08:06:31;;;;;;;3.83;3.20;;;30.50;95.20;;;;;;1804892;79;21168;-71
2022/08/25 08:09:03;;;;;;;4.90;3.12;;;30.40;95.00;;;;;;1813608;77;21263;-72
2022/08/25 08:11:39;;;;;;;8.95;3.00;;;30.30;95.30;;;;;;1818298;78;21203;-72
2022/08/25 08:14:10;;;;;;;3.52;2.47;;;30.30;95.70;;;;;;1816913;77;21169;-73
2022/08/25 08:16:43;;;;;;;2.58;1.70;;;30.20;96.10;;;;;;1817111;78;21124;-72
2022/08/25 08:19:15;;;;;;;6.35;2.12;;;30.20;95.20;;;;;;1818014;78;21848;-72
2022/08/25 08:21:48;;;;;;;3.70;1.32;;;29.90;94.60;;;;;;1816556;78;21644;-73
2022/08/25 08:24:21;;;;;;;3.35;1.50;;;29.70;94.90;;;;;;1804717;78;21196;-75
2022/08/25 08:26:54;;;;;;;2.20;1.32;;;29.40;95.40;;;;;;1810589;76;21225;-71
2022/08/25 08:29:26;;;;;;;3.65;1.40;;;29.20;95.50;;;;;;1797200;78;21167;-72
2022/08/25 08:31:58;;;;;;;3.42;2.00;;;29.00;95.90;;;;;;1802578;79;21170;-72
2022/08/25 08:34:29;;;;;;;5.45;3.92;;;28.90;96.10;;;;;;1789773;79;21165;-71
2022/08/25 08:37:02;;;;;;;6.22;2.30;;;28.80;96.40;;;;;;1814731;77;21625;-71
2022/08/25 08:39:33;;;;;;;5.22;1.70;;;28.80;96.50;;;;;;1779751;78;21179;-72
2022/08/25 08:42:17;;;;;;;7.25;5.33;;;28.70;96.70;;;;;;1779310;80;21633;-71
2022/08/25 08:44:43;;;;;;;4.80;1.80;;;28.70;96.50;;;;;;1819495;77;21608;-71
2022/08/25 08:47:16;;;;;;;3.52;1.85;;;28.70;96.40;;;;;;1818197;77;21244;-72
2022/08/25 08:49:51;;;;;;;3.65;1.80;;;28.80;96.20;;;;;;1840956;76;21201;-72
2022/08/25 08:52:25;;;;;;;4.65;1.70;;;28.80;96.20;;;;;;1797429;79;21680;-71
2022/08/25 08:55:00;;;;;;;3.15;1.50;;;28.70;96.20;;;;;;1820871;77;21157;-71
2022/08/25 08:57:35;;;;;;;3.37;2.00;;;28.70;96.30;;;;;;1843656;77;21561;-72
2022/08/25 09:00:07;;;;;;;3.65;2.20;;;28.60;96.70;;;;;;1836862;77;21087;-71
2022/08/25 09:02:42;;;;;;;3.30;2.10;;;28.60;97.10;;;;;;1842613;77;21246;-71
2022/08/25 09:05:18;;;;;;;5.55;2.30;;;28.50;97.20;;;;;;1808030;79;21161;-71
2022/08/25 09:07:53;;;;;;;2.87;2.00;;;28.40;97.20;;;;;;1796856;79;21226;-71
2022/08/25 09:10:27;;;;;;;4.90;2.55;;;28.40;97.20;;;;;;1819277;77;21150;-70
2022/08/25 09:13:00;;;;;;;4.00;2.85;;;28.40;97.30;;;;;;1814598;78;21235;-71
2022/08/25 09:18:12;;;;;;;4.75;2.40;;;28.40;97.40;;;;;;1796399;79;21109;-72
2022/08/25 09:20:43;;;;;;;7.60;2.77;;;28.30;97.30;;;;;;1826879;76;21087;-72
2022/08/25 09:23:17;;;;;;;4.28;2.52;;;28.40;97.40;;;;;;1802697;78;21218;-72
2022/08/25 09:25:51;;;;;;;3.98;2.55;;;28.40;97.40;;;;;;1815850;78;21687;-71
2022/08/25 09:28:25;;;;;;;6.62;3.40;;;28.40;97.60;;;;;;1816901;78;21192;-71
2022/08/25 09:30:59;;;;;;;5.80;2.85;;;28.40;97.70;;;;;;1815114;77;21167;-70
2022/08/25 09:33:32;;;;;;;5.62;3.15;;;28.50;97.80;;;;;;1813161;78;21212;-71
2022/08/25 09:36:06;;;;;;;6.80;3.08;;;28.50;97.70;;;;;;1806354;78;22120;-71
2022/08/25 09:38:38;;;;;;;7.12;3.50;;;28.50;97.70;;;;;;1809466;78;21756;-71
2022/08/25 09:41:10;;;;;;;7.53;3.75;;;28.50;97.90;;;;;;1818211;77;21561;-71
2022/08/25 09:43:44;;;;;;;5.47;3.55;;;28.60;98.00;;;;;;1812571;78;21253;-71
2022/08/25 09:46:17;;;;;;;6.92;3.00;;;28.50;98.10;;;;;;1815886;77;21104;-71
2022/08/25 09:48:52;;;;;;;6.50;3.45;;;28.50;98.20;;;;;;1813396;78;21150;-70
2022/08/25 09:51:27;;;;;;;7.80;3.98;;;28.50;98.30;;;;;;1809200;77;21178;-71
2022/08/25 09:54:04;;;;;;;8.48;3.85;;;28.50;98.40;;;;;;1816972;78;21260;-72
2022/08/25 09:56:39;;;;;;;7.22;3.75;;;28.50;98.40;;;;;;1819023;78;21201;-72
2022/08/25 09:59:14;;;;;;;7.50;4.45;;;28.50;98.80;;;;;;1797359;79;21134;-71
2022/08/25 10:01:48;;;;;;;10.40;5.33;;;28.50;98.80;;;;;;1815049;77;21145;-70
2022/08/25 10:04:22;;;;;;;8.95;4.42;;;28.50;98.80;;;;;;1805375;78;21186;-71
2022/08/25 10:06:54;;;;;;;5.37;4.00;;;28.50;98.90;;;;;;1790459;78;21197;-71
2022/08/25 10:09:29;;;;;;;11.65;4.22;;;28.50;98.80;;;;;;1803169;78;21138;-71
2022/08/25 10:12:03;;;;;;;7.87;4.15;;;28.60;98.80;;;;;;1810804;78;21570;-71
2022/08/25 10:14:39;;;;;;;8.03;3.87;;;28.60;98.80;;;;;;1817022;77;21099;-71
2022/08/25 10:17:13;;;;;;;9.00;4.10;;;28.60;98.80;;;;;;1817194;77;21209;-71
2022/08/25 10:20:04;;;;;;;8.65;4.90;;;28.60;98.90;;;;;;1794169;79;21170;-70
2022/08/25 10:22:38;;;;;;;9.40;5.03;;;28.60;98.90;;;;;;1816662;77;21174;-71
2022/08/25 10:25:11;;;;;;;9.60;4.90;;;28.60;99.00;;;;;;1817881;78;22145;-71
2022/08/25 10:27:43;;;;;;;5.97;3.67;;;28.50;99.30;;;;;;1817281;78;21169;-71
2022/08/25 10:30:15;;;;;;;8.35;3.70;;;28.40;99.70;;;;;;1783054;79;22424;-70
2022/08/25 10:32:47;;;;;;;8.30;4.22;;;28.30;99.90;;;;;;1806622;78;21241;-71
2022/08/25 10:35:20;;;;;;;6.53;4.17;;;28.20;99.90;;;;;;1826361;77;21174;-71
2022/08/25 10:37:54;;;;;;;6.08;3.40;;;28.20;99.90;;;;;;1827456;77;21594;-71
2022/08/25 10:40:29;;;;;;;4.97;3.62;;;28.10;99.90;;;;;;1806668;78;21143;-72
2022/08/25 10:43:05;;;;;;;5.53;3.10;;;28.00;99.90;;;;;;1806069;78;21714;-71
2022/08/25 10:45:44;;;;;;;6.47;2.85;;;27.90;99.90;;;;;;1816985;78;21632;-71
2022/08/25 10:48:12;;;;;;;9.30;3.92;;;27.90;99.90;;;;;;1781706;79;21125;-72
2022/08/25 10:50:46;;;;;;;8.48;4.42;;;27.80;99.90;;;;;;1821167;77;21192;-72
2022/08/25 10:53:20;;;;;;;6.35;4.50;;;27.70;99.90;;;;;;1825870;77;21653;-71
2022/08/25 10:55:52;;;;;;;6.60;4.40;;;27.70;99.90;;;;;;1823060;77;21157;-72
2022/08/25 10:58:23;;;;;;;8.90;4.45;;;27.60;99.90;;;;;;1792379;78;21165;-74
2022/08/25 11:00:58;;;;;;;5.08;4.05;;;27.50;99.90;;;;;;1815463;78;21134;-72
2022/08/25 11:03:31;;;;;;;9.90;5.20;;;27.40;99.90;;;;;;1811302;77;21154;-71
2022/08/25 11:06:06;;;;;;;8.05;4.47;;;27.40;99.90;;;;;;1825232;77;21236;-72
2022/08/25 11:08:39;;;;;;;7.58;5.00;;;27.30;99.90;;;;;;1818614;77;21689;-71
2022/08/25 11:11:13;;;;;;;7.40;4.67;;;27.30;99.90;;;;;;1780006;79;21650;-71
2022/08/25 11:13:47;;;;;;;5.90;5.10;;;27.20;99.90;;;;;;1746856;80;21871;-72
2022/08/25 11:16:20;;;;;;;11.25;5.75;;;27.20;99.90;;;;;;1788304;79;21151;-73
2022/08/25 11:18:53;;;;;;;6.53;5.10;;;27.20;99.90;;;;;;1817527;77;21150;-72
2022/08/25 11:21:27;;;;;;;6.25;5.33;;;27.20;99.90;;;;;;1772890;80;21220;-73
2022/08/25 11:24:02;;;;;;;7.47;5.75;;;27.20;99.90;;;;;;1811344;77;21170;-72
2022/08/25 11:26:35;;;;;;;7.67;6.28;;;27.30;99.90;;;;;;1806926;77;21711;-74
2022/08/25 11:29:07;;;;;;;12.43;7.12;;;27.30;99.90;;;;;;1796442;78;22399;-73
2022/08/25 11:31:41;;;;;;;11.60;6.50;;;27.30;99.90;;;;;;1803485;79;21158;-73
2022/08/25 11:34:17;;;;;;;9.30;7.20;;;27.30;99.90;;;;;;1802636;77;21142;-72
2022/08/25 11:36:50;;;;;;;14.98;6.90;;;27.30;99.90;;;;;;1802393;79;21232;-71
2022/08/25 11:39:24;;;;;;;9.73;7.15;;;27.20;99.90;;;;;;1768350;79;21234;-72
2022/08/25 11:41:59;;;;;;;9.28;6.90;;;27.20;99.90;;;;;;1813725;77;21220;-72
2022/08/25 11:44:33;;;;;;;8.85;6.78;;;27.20;99.90;;;;;;1804727;77;21693;-72
2022/08/25 11:47:07;;;;;;;8.40;6.62;;;27.20;99.90;;;;;;1774646;79;21691;-71
2022/08/25 11:49:40;;;;;;;8.48;6.80;;;27.30;99.90;;;;;;1814273;76;21092;-72
2022/08/25 11:52:13;;;;;;;9.55;7.62;;;27.30;99.90;;;;;;1799797;78;21681;-72
2022/08/25 11:54:47;;;;;;;7.97;6.90;;;27.30;99.90;;;;;;1803989;78;21280;-72
2022/08/25 11:57:17;;;;;;;10.08;7.60;;;27.30;99.90;;;;;;1772229;79;21241;-72
2022/08/25 11:59:50;;;;;;;9.53;7.05;;;27.30;99.90;;;;;;1815927;77;21492;-71
2022/08/25 12:02:25;;;;;;;12.18;8.05;;;27.30;99.90;;;;;;1806188;77;21134;-72
2022/08/25 12:04:56;;;;;;;7.67;6.90;;;27.30;99.90;;;;;;1813184;77;21278;-70
2022/08/25 12:07:30;;;;;;;8.85;7.17;;;27.30;99.90;;;;;;1821109;77;21153;-71
2022/08/25 12:10:04;;;;;;;8.33;7.20;;;27.20;99.90;;;;;;1819449;76;21143;-85
2022/08/25 12:12:35;;;;;;;9.00;6.83;;;27.20;99.90;;;;;;1815571;77;21163;-85
2022/08/25 12:15:10;;;;;;;8.73;7.33;;;27.30;99.90;;;;;;1814776;77;21211;-85
2022/08/25 12:17:41;;;;;;;8.35;6.40;;;27.20;99.90;;;;;;1807186;77;21159;-84
2022/08/25 12:20:12;;;;;;;7.60;5.97;;;27.30;99.90;;;;;;1818505;77;21127;-85
2022/08/25 12:22:50;;;;;;;7.15;5.42;;;27.20;99.90;;;;;;1808353;77;21155;-86
2022/08/25 12:25:25;;;;;;;7.53;5.20;;;27.20;99.90;;;;;;1788453;78;21173;-85
2022/08/25 12:28:03;;;;;;;6.42;4.95;;;27.20;99.90;;;;;;1832195;76;21682;-85
2022/08/25 12:30:40;;;;;;;4.90;4.40;;;27.20;99.90;;;;;;1823685;76;21080;-83
2022/08/25 12:33:14;;;;;;;7.05;5.35;;;27.20;99.90;;;;;;1830589;77;21560;-83
2022/08/25 12:35:47;;;;;;;6.65;5.53;;;27.20;99.90;;;;;;1834545;76;21139;-84
2022/08/25 12:38:20;;;;;;;6.28;5.45;;;27.20;99.90;;;;;;1834628;77;21178;-83
2022/08/25 12:40:51;;;;;;;7.20;5.35;;;27.20;99.90;;;;;;1831153;77;21217;-84
2022/08/25 12:43:25;;;;;;;6.40;5.00;;;27.20;99.90;;;;;;1842814;77;21071;-84
2022/08/25 12:46:00;;;;;;;6.42;4.80;;;27.20;99.90;;;;;;1834974;76;21181;-83
2022/08/25 12:48:34;;;;;;;5.28;4.47;;;27.20;99.90;;;;;;1838307;77;21207;-83
2022/08/25 12:51:08;;;;;;;6.53;5.00;;;27.10;99.90;;;;;;1843559;76;21195;-84
2022/08/25 12:53:43;;;;;;;5.78;4.50;;;27.10;99.90;;;;;;1837947;76;21134;-84
2022/08/25 12:56:23;;;;;;;6.58;4.25;;;27.10;99.90;;;;;;1853755;74;21228;-85
2022/08/25 12:59:01;;;;;;;5.53;3.55;;;27.10;99.90;;;;;;1867332;73;21710;-84
2022/08/25 13:01:34;;;;;;;5.12;3.55;;;27.10;99.90;;;;;;1914503;74;21113;-86
2022/08/25 13:04:08;;;;;;;4.33;3.58;;;27.10;99.90;;;;;;1916113;74;21162;-87
2022/08/25 13:06:45;;;;;;;4.55;3.47;;;27.00;99.90;;;;;;1920294;74;21121;-84
2022/08/25 13:09:23;;;;;;;;;;;27.00;99.90;;;;;;1922362;74;21068;-84
2022/08/25 13:12:03;;;;;;;3.92;2.80;;;27.00;99.90;;;;;;1925704;73;20221;-86
2022/08/25 13:14:36;;;;;;;4.85;3.17;;;27.00;99.90;;;;;;1917201;73;21134;-85
2022/08/25 13:17:08;;;;;;;4.55;3.60;;;27.00;99.90;;;;;;1895793;74;21218;-83
2022/08/25 13:19:39;;;;;;;7.08;4.28;;;27.00;99.90;;;;;;1846442;75;21105;-86